sensor_id;sensor_type;location;lat;lon;timestamp;P1;durP1;ratioP1;P2;durP2;ratioP2
29732;SDS011;16643;43.158;25.302;2023-04-15T00:01:23;3.35;;;1.42;;
29732;SDS011;16643;43.158;25.302;2023-04-15T00:03:53;8.63;;;1.48;;
29732;SDS011;16643;43.158;25.302;2023-04-15T00:06:19;4.65;;;2.90;;
29732;SDS011;16643;43.158;25.302;2023-04-15T00:08:46;5.57;;;1.75;;
29732;SDS011;16643;43.158;25.302;2023-04-15T00:11:12;5.47;;;1.52;;
29732;SDS011;16643;43.158;25.302;2023-04-15T00:13:38;3.17;;;1.70;;
29732;SDS011;16643;43.158;25.302;2023-04-15T00:16:04;5.38;;;1.90;;
29732;SDS011;16643;43.158;25.302;2023-04-15T00:18:31;5.68;;;1.60;;
29732;SDS011;16643;43.158;25.302;2023-04-15T00:20:57;5.40;;;2.00;;
29732;SDS011;16643;43.158;25.302;2023-04-15T00:23:23;2.92;;;1.30;;
29732;SDS011;16643;43.158;25.302;2023-04-15T00:25:49;6.53;;;1.70;;
29732;SDS011;16643;43.158;25.302;2023-04-15T00:28:15;4.88;;;1.40;;
29732;SDS011;16643;43.158;25.302;2023-04-15T00:30:41;1.92;;;1.25;;
29732;SDS011;16643;43.158;25.302;2023-04-15T00:33:07;6.43;;;1.85;;
29732;SDS011;16643;43.158;25.302;2023-04-15T00:35:32;6.78;;;2.00;;
29732;SDS011;16643;43.158;25.302;2023-04-15T00:37:58;4.35;;;1.60;;
29732;SDS011;16643;43.158;25.302;2023-04-15T00:40:24;5.63;;;1.70;;
29732;SDS011;16643;43.158;25.302;2023-04-15T00:42:50;7.03;;;2.22;;
29732;SDS011;16643;43.158;25.302;2023-04-15T00:45:16;6.68;;;2.08;;
29732;SDS011;16643;43.158;25.302;2023-04-15T00:47:43;6.43;;;1.40;;
29732;SDS011;16643;43.158;25.302;2023-04-15T00:50:10;6.07;;;1.88;;
29732;SDS011;16643;43.158;25.302;2023-04-15T00:52:36;5.10;;;1.60;;
29732;SDS011;16643;43.158;25.302;2023-04-15T00:55:03;4.28;;;1.60;;
29732;SDS011;16643;43.158;25.302;2023-04-15T00:57:31;5.15;;;1.52;;
29732;SDS011;16643;43.158;25.302;2023-04-15T00:59:57;3.60;;;1.50;;
29732;SDS011;16643;43.158;25.302;2023-04-15T01:02:23;3.28;;;1.60;;
29732;SDS011;16643;43.158;25.302;2023-04-15T01:04:49;3.85;;;1.17;;
29732;SDS011;16643;43.158;25.302;2023-04-15T01:07:15;5.30;;;1.60;;
29732;SDS011;16643;43.158;25.302;2023-04-15T01:09:41;4.45;;;1.50;;
29732;SDS011;16643;43.158;25.302;2023-04-15T01:12:08;5.68;;;1.20;;
29732;SDS011;16643;43.158;25.302;2023-04-15T01:14:36;5.57;;;1.65;;
29732;SDS011;16643;43.158;25.302;2023-04-15T01:17:03;6.00;;;1.50;;
29732;SDS011;16643;43.158;25.302;2023-04-15T01:19:29;4.35;;;1.20;;
29732;SDS011;16643;43.158;25.302;2023-04-15T01:21:55;3.47;;;1.25;;
29732;SDS011;16643;43.158;25.302;2023-04-15T01:24:21;4.20;;;1.58;;
29732;SDS011;16643;43.158;25.302;2023-04-15T01:26:48;3.30;;;1.40;;
29732;SDS011;16643;43.158;25.302;2023-04-15T01:29:14;3.35;;;1.20;;
29732;SDS011;16643;43.158;25.302;2023-04-15T01:31:43;4.57;;;1.40;;
29732;SDS011;16643;43.158;25.302;2023-04-15T01:34:15;3.50;;;1.48;;
29732;SDS011;16643;43.158;25.302;2023-04-15T01:36:41;3.78;;;1.23;;
29732;SDS011;16643;43.158;25.302;2023-04-15T01:39:06;6.05;;;1.75;;
29732;SDS011;16643;43.158;25.302;2023-04-15T01:41:32;5.90;;;1.48;;
29732;SDS011;16643;43.158;25.302;2023-04-15T01:43:58;5.13;;;1.10;;
29732;SDS011;16643;43.158;25.302;2023-04-15T01:46:24;2.67;;;1.30;;
29732;SDS011;16643;43.158;25.302;2023-04-15T01:48:49;5.53;;;2.25;;
29732;SDS011;16643;43.158;25.302;2023-04-15T01:51:15;6.97;;;2.10;;
29732;SDS011;16643;43.158;25.302;2023-04-15T01:53:41;3.70;;;1.60;;
29732;SDS011;16643;43.158;25.302;2023-04-15T01:56:07;3.85;;;1.42;;
29732;SDS011;16643;43.158;25.302;2023-04-15T01:58:33;6.18;;;1.70;;
29732;SDS011;16643;43.158;25.302;2023-04-15T02:00:59;3.75;;;1.20;;
29732;SDS011;16643;43.158;25.302;2023-04-15T02:03:24;5.03;;;1.67;;
29732;SDS011;16643;43.158;25.302;2023-04-15T02:05:50;5.68;;;1.55;;
29732;SDS011;16643;43.158;25.302;2023-04-15T02:08:16;3.78;;;1.30;;
29732;SDS011;16643;43.158;25.302;2023-04-15T02:10:41;6.82;;;1.35;;
29732;SDS011;16643;43.158;25.302;2023-04-15T02:13:07;6.38;;;2.17;;
29732;SDS011;16643;43.158;25.302;2023-04-15T02:15:33;7.60;;;1.90;;
29732;SDS011;16643;43.158;25.302;2023-04-15T02:17:59;4.60;;;1.58;;
29732;SDS011;16643;43.158;25.302;2023-04-15T02:20:25;6.00;;;1.67;;
29732;SDS011;16643;43.158;25.302;2023-04-15T02:22:51;3.15;;;1.35;;
29732;SDS011;16643;43.158;25.302;2023-04-15T02:25:17;4.40;;;1.65;;
29732;SDS011;16643;43.158;25.302;2023-04-15T02:27:43;4.97;;;1.35;;
29732;SDS011;16643;43.158;25.302;2023-04-15T02:30:09;5.40;;;1.33;;
29732;SDS011;16643;43.158;25.302;2023-04-15T02:32:35;6.00;;;2.65;;
29732;SDS011;16643;43.158;25.302;2023-04-15T02:35:05;3.70;;;1.73;;
29732;SDS011;16643;43.158;25.302;2023-04-15T02:37:34;3.25;;;1.40;;
29732;SDS011;16643;43.158;25.302;2023-04-15T02:40:08;4.50;;;1.35;;
29732;SDS011;16643;43.158;25.302;2023-04-15T02:42:41;5.43;;;1.60;;
29732;SDS011;16643;43.158;25.302;2023-04-15T02:45:08;2.92;;;1.65;;
29732;SDS011;16643;43.158;25.302;2023-04-15T02:47:34;3.42;;;1.40;;
29732;SDS011;16643;43.158;25.302;2023-04-15T02:50:01;10.88;;;5.13;;
29732;SDS011;16643;43.158;25.302;2023-04-15T02:52:28;8.45;;;3.60;;
29732;SDS011;16643;43.158;25.302;2023-04-15T02:54:53;6.07;;;2.72;;
29732;SDS011;16643;43.158;25.302;2023-04-15T02:57:24;5.43;;;2.63;;
29732;SDS011;16643;43.158;25.302;2023-04-15T02:59:53;4.75;;;2.10;;
29732;SDS011;16643;43.158;25.302;2023-04-15T03:02:19;6.40;;;2.20;;
29732;SDS011;16643;43.158;25.302;2023-04-15T03:04:45;8.15;;;2.25;;
29732;SDS011;16643;43.158;25.302;2023-04-15T03:07:10;3.60;;;2.08;;
29732;SDS011;16643;43.158;25.302;2023-04-15T03:09:36;4.68;;;2.20;;
29732;SDS011;16643;43.158;25.302;2023-04-15T03:12:04;5.43;;;2.60;;
29732;SDS011;16643;43.158;25.302;2023-04-15T03:14:30;7.75;;;2.47;;
29732;SDS011;16643;43.158;25.302;2023-04-15T03:16:56;8.55;;;3.00;;
29732;SDS011;16643;43.158;25.302;2023-04-15T03:19:23;8.07;;;3.10;;
29732;SDS011;16643;43.158;25.302;2023-04-15T03:21:49;4.30;;;2.38;;
29732;SDS011;16643;43.158;25.302;2023-04-15T03:24:16;6.38;;;2.30;;
29732;SDS011;16643;43.158;25.302;2023-04-15T03:26:42;6.55;;;2.38;;
29732;SDS011;16643;43.158;25.302;2023-04-15T03:29:08;6.65;;;2.45;;
29732;SDS011;16643;43.158;25.302;2023-04-15T03:31:34;7.95;;;2.65;;
29732;SDS011;16643;43.158;25.302;2023-04-15T03:33:59;8.13;;;2.35;;
29732;SDS011;16643;43.158;25.302;2023-04-15T03:36:25;9.85;;;2.50;;
29732;SDS011;16643;43.158;25.302;2023-04-15T03:38:57;6.20;;;2.28;;
29732;SDS011;16643;43.158;25.302;2023-04-15T03:41:23;8.18;;;2.78;;
29732;SDS011;16643;43.158;25.302;2023-04-15T03:43:49;4.35;;;2.30;;
29732;SDS011;16643;43.158;25.302;2023-04-15T03:46:18;6.85;;;1.95;;
29732;SDS011;16643;43.158;25.302;2023-04-15T03:48:43;8.90;;;3.38;;
29732;SDS011;16643;43.158;25.302;2023-04-15T03:51:09;4.50;;;1.95;;
29732;SDS011;16643;43.158;25.302;2023-04-15T03:53:35;4.13;;;2.47;;
29732;SDS011;16643;43.158;25.302;2023-04-15T03:56:04;6.03;;;2.42;;
29732;SDS011;16643;43.158;25.302;2023-04-15T03:58:30;6.80;;;2.70;;
29732;SDS011;16643;43.158;25.302;2023-04-15T04:00:56;7.18;;;3.20;;
29732;SDS011;16643;43.158;25.302;2023-04-15T04:03:21;4.78;;;2.10;;
29732;SDS011;16643;43.158;25.302;2023-04-15T04:05:47;4.88;;;2.30;;
29732;SDS011;16643;43.158;25.302;2023-04-15T04:08:13;7.70;;;2.53;;
29732;SDS011;16643;43.158;25.302;2023-04-15T04:10:40;4.10;;;2.42;;
29732;SDS011;16643;43.158;25.302;2023-04-15T04:13:06;6.70;;;2.70;;
29732;SDS011;16643;43.158;25.302;2023-04-15T04:15:32;13.65;;;2.40;;
29732;SDS011;16643;43.158;25.302;2023-04-15T04:17:58;7.30;;;2.30;;
29732;SDS011;16643;43.158;25.302;2023-04-15T04:20:23;3.40;;;1.77;;
29732;SDS011;16643;43.158;25.302;2023-04-15T04:22:49;3.97;;;2.25;;
29732;SDS011;16643;43.158;25.302;2023-04-15T04:25:15;4.38;;;2.03;;
29732;SDS011;16643;43.158;25.302;2023-04-15T04:27:41;8.60;;;4.68;;
29732;SDS011;16643;43.158;25.302;2023-04-15T04:30:07;8.15;;;3.88;;
29732;SDS011;16643;43.158;25.302;2023-04-15T04:32:33;8.93;;;3.90;;
29732;SDS011;16643;43.158;25.302;2023-04-15T04:34:59;8.23;;;4.68;;
29732;SDS011;16643;43.158;25.302;2023-04-15T04:37:25;17.17;;;11.45;;
29732;SDS011;16643;43.158;25.302;2023-04-15T04:39:50;16.90;;;10.07;;
29732;SDS011;16643;43.158;25.302;2023-04-15T04:42:16;7.95;;;4.72;;
29732;SDS011;16643;43.158;25.302;2023-04-15T04:44:41;10.85;;;3.88;;
29732;SDS011;16643;43.158;25.302;2023-04-15T04:47:07;12.82;;;5.75;;
29732;SDS011;16643;43.158;25.302;2023-04-15T04:49:33;11.60;;;5.43;;
29732;SDS011;16643;43.158;25.302;2023-04-15T04:51:59;13.90;;;7.82;;
29732;SDS011;16643;43.158;25.302;2023-04-15T04:54:24;9.38;;;5.10;;
29732;SDS011;16643;43.158;25.302;2023-04-15T04:56:51;5.68;;;2.10;;
29732;SDS011;16643;43.158;25.302;2023-04-15T04:59:22;4.45;;;1.90;;
29732;SDS011;16643;43.158;25.302;2023-04-15T05:01:48;6.90;;;2.45;;
29732;SDS011;16643;43.158;25.302;2023-04-15T05:04:13;3.92;;;2.20;;
29732;SDS011;16643;43.158;25.302;2023-04-15T05:06:48;8.60;;;2.58;;
29732;SDS011;16643;43.158;25.302;2023-04-15T05:09:14;8.90;;;3.60;;
29732;SDS011;16643;43.158;25.302;2023-04-15T05:11:39;6.90;;;3.30;;
29732;SDS011;16643;43.158;25.302;2023-04-15T05:14:05;8.70;;;3.17;;
29732;SDS011;16643;43.158;25.302;2023-04-15T05:16:31;5.60;;;2.80;;
29732;SDS011;16643;43.158;25.302;2023-04-15T05:18:58;7.05;;;3.35;;
29732;SDS011;16643;43.158;25.302;2023-04-15T05:21:24;8.95;;;3.53;;
29732;SDS011;16643;43.158;25.302;2023-04-15T05:23:50;4.10;;;2.17;;
29732;SDS011;16643;43.158;25.302;2023-04-15T05:26:16;5.47;;;3.13;;
29732;SDS011;16643;43.158;25.302;2023-04-15T05:28:41;5.90;;;2.25;;
29732;SDS011;16643;43.158;25.302;2023-04-15T05:31:08;4.65;;;2.60;;
29732;SDS011;16643;43.158;25.302;2023-04-15T05:33:38;4.72;;;2.60;;
29732;SDS011;16643;43.158;25.302;2023-04-15T05:36:04;4.68;;;3.00;;
29732;SDS011;16643;43.158;25.302;2023-04-15T05:38:36;5.43;;;2.50;;
29732;SDS011;16643;43.158;25.302;2023-04-15T05:41:04;7.88;;;2.17;;
29732;SDS011;16643;43.158;25.302;2023-04-15T05:43:30;6.53;;;1.65;;
29732;SDS011;16643;43.158;25.302;2023-04-15T05:45:56;7.53;;;2.50;;
29732;SDS011;16643;43.158;25.302;2023-04-15T05:48:23;8.00;;;3.20;;
29732;SDS011;16643;43.158;25.302;2023-04-15T05:50:49;8.07;;;3.60;;
29732;SDS011;16643;43.158;25.302;2023-04-15T05:53:14;12.80;;;11.45;;
29732;SDS011;16643;43.158;25.302;2023-04-15T05:55:40;14.88;;;13.25;;
29732;SDS011;16643;43.158;25.302;2023-04-15T05:58:06;9.70;;;5.15;;
29732;SDS011;16643;43.158;25.302;2023-04-15T06:00:33;7.68;;;4.10;;
29732;SDS011;16643;43.158;25.302;2023-04-15T06:02:59;5.78;;;2.63;;
29732;SDS011;16643;43.158;25.302;2023-04-15T06:05:25;6.20;;;2.20;;
29732;SDS011;16643;43.158;25.302;2023-04-15T06:07:50;2.60;;;1.48;;
29732;SDS011;16643;43.158;25.302;2023-04-15T06:10:16;4.80;;;0.93;;
29732;SDS011;16643;43.158;25.302;2023-04-15T06:12:42;4.00;;;1.35;;
29732;SDS011;16643;43.158;25.302;2023-04-15T06:15:07;2.85;;;1.23;;
29732;SDS011;16643;43.158;25.302;2023-04-15T06:17:34;1.42;;;1.17;;
29732;SDS011;16643;43.158;25.302;2023-04-15T06:20:01;4.13;;;2.30;;
29732;SDS011;16643;43.158;25.302;2023-04-15T06:22:27;3.25;;;1.27;;
29732;SDS011;16643;43.158;25.302;2023-04-15T06:24:52;6.90;;;3.15;;
29732;SDS011;16643;43.158;25.302;2023-04-15T06:27:18;6.60;;;2.70;;
29732;SDS011;16643;43.158;25.302;2023-04-15T06:29:44;3.67;;;1.33;;
29732;SDS011;16643;43.158;25.302;2023-04-15T06:32:10;2.58;;;1.05;;
29732;SDS011;16643;43.158;25.302;2023-04-15T06:34:37;3.13;;;1.30;;
29732;SDS011;16643;43.158;25.302;2023-04-15T06:37:02;3.58;;;1.50;;
29732;SDS011;16643;43.158;25.302;2023-04-15T06:39:28;6.72;;;2.80;;
29732;SDS011;16643;43.158;25.302;2023-04-15T06:41:55;2.58;;;1.35;;
29732;SDS011;16643;43.158;25.302;2023-04-15T06:44:20;4.40;;;1.67;;
29732;SDS011;16643;43.158;25.302;2023-04-15T06:46:46;4.50;;;1.80;;
29732;SDS011;16643;43.158;25.302;2023-04-15T06:49:12;8.98;;;1.90;;
29732;SDS011;16643;43.158;25.302;2023-04-15T06:51:38;5.28;;;2.80;;
29732;SDS011;16643;43.158;25.302;2023-04-15T06:54:03;4.60;;;1.00;;
29732;SDS011;16643;43.158;25.302;2023-04-15T06:56:33;5.10;;;1.50;;
29732;SDS011;16643;43.158;25.302;2023-04-15T06:58:59;1.80;;;0.93;;
29732;SDS011;16643;43.158;25.302;2023-04-15T07:01:25;5.32;;;1.30;;
29732;SDS011;16643;43.158;25.302;2023-04-15T07:03:51;5.20;;;1.65;;
29732;SDS011;16643;43.158;25.302;2023-04-15T07:06:16;3.10;;;1.25;;
29732;SDS011;16643;43.158;25.302;2023-04-15T07:08:42;1.92;;;1.02;;
29732;SDS011;16643;43.158;25.302;2023-04-15T07:11:07;3.92;;;1.20;;
29732;SDS011;16643;43.158;25.302;2023-04-15T07:13:34;5.82;;;1.00;;
29732;SDS011;16643;43.158;25.302;2023-04-15T07:16:00;2.60;;;0.82;;
29732;SDS011;16643;43.158;25.302;2023-04-15T07:18:26;7.38;;;1.23;;
29732;SDS011;16643;43.158;25.302;2023-04-15T07:20:51;3.40;;;1.33;;
29732;SDS011;16643;43.158;25.302;2023-04-15T07:23:17;2.80;;;0.90;;
29732;SDS011;16643;43.158;25.302;2023-04-15T07:25:42;4.25;;;1.60;;
29732;SDS011;16643;43.158;25.302;2023-04-15T07:28:08;6.75;;;1.23;;
29732;SDS011;16643;43.158;25.302;2023-04-15T07:30:34;2.30;;;0.90;;
29732;SDS011;16643;43.158;25.302;2023-04-15T07:33:00;3.05;;;1.00;;
29732;SDS011;16643;43.158;25.302;2023-04-15T07:35:26;2.85;;;1.20;;
29732;SDS011;16643;43.158;25.302;2023-04-15T07:37:52;4.05;;;1.05;;
29732;SDS011;16643;43.158;25.302;2023-04-15T07:40:17;4.25;;;1.10;;
29732;SDS011;16643;43.158;25.302;2023-04-15T07:42:44;2.45;;;0.80;;
29732;SDS011;16643;43.158;25.302;2023-04-15T07:45:09;2.58;;;1.25;;
29732;SDS011;16643;43.158;25.302;2023-04-15T07:47:36;3.83;;;1.17;;
29732;SDS011;16643;43.158;25.302;2023-04-15T07:50:02;4.13;;;1.35;;
29732;SDS011;16643;43.158;25.302;2023-04-15T07:52:28;4.32;;;1.55;;
29732;SDS011;16643;43.158;25.302;2023-04-15T07:54:54;2.75;;;1.13;;
29732;SDS011;16643;43.158;25.302;2023-04-15T07:57:19;2.70;;;1.08;;
29732;SDS011;16643;43.158;25.302;2023-04-15T07:59:45;4.45;;;1.05;;
29732;SDS011;16643;43.158;25.302;2023-04-15T08:02:11;5.65;;;1.27;;
29732;SDS011;16643;43.158;25.302;2023-04-15T08:04:36;3.63;;;1.08;;
29732;SDS011;16643;43.158;25.302;2023-04-15T08:07:02;1.88;;;1.13;;
29732;SDS011;16643;43.158;25.302;2023-04-15T08:09:29;3.30;;;1.08;;
29732;SDS011;16643;43.158;25.302;2023-04-15T08:11:54;2.33;;;1.05;;
29732;SDS011;16643;43.158;25.302;2023-04-15T08:14:21;2.67;;;1.00;;
29732;SDS011;16643;43.158;25.302;2023-04-15T08:16:47;4.40;;;0.88;;
29732;SDS011;16643;43.158;25.302;2023-04-15T08:19:12;4.18;;;1.10;;
29732;SDS011;16643;43.158;25.302;2023-04-15T08:21:38;2.58;;;1.20;;
29732;SDS011;16643;43.158;25.302;2023-04-15T08:24:05;5.15;;;1.20;;
29732;SDS011;16643;43.158;25.302;2023-04-15T08:26:31;3.88;;;1.88;;
29732;SDS011;16643;43.158;25.302;2023-04-15T08:28:56;4.93;;;1.60;;
29732;SDS011;16643;43.158;25.302;2023-04-15T08:31:22;3.47;;;1.40;;
29732;SDS011;16643;43.158;25.302;2023-04-15T08:36:18;4.88;;;1.35;;
29732;SDS011;16643;43.158;25.302;2023-04-15T08:38:44;3.00;;;1.38;;
29732;SDS011;16643;43.158;25.302;2023-04-15T08:41:55;4.10;;;1.40;;
29732;SDS011;16643;43.158;25.302;2023-04-15T08:44:04;4.68;;;1.13;;
29732;SDS011;16643;43.158;25.302;2023-04-15T08:46:30;3.55;;;1.23;;
29732;SDS011;16643;43.158;25.302;2023-04-15T08:49:02;2.63;;;1.08;;
29732;SDS011;16643;43.158;25.302;2023-04-15T08:51:28;3.53;;;1.40;;
29732;SDS011;16643;43.158;25.302;2023-04-15T08:53:55;5.18;;;1.38;;
29732;SDS011;16643;43.158;25.302;2023-04-15T08:56:23;3.22;;;1.45;;
29732;SDS011;16643;43.158;25.302;2023-04-15T08:58:53;2.63;;;0.90;;
29732;SDS011;16643;43.158;25.302;2023-04-15T09:01:23;2.28;;;1.23;;
29732;SDS011;16643;43.158;25.302;2023-04-15T09:03:50;5.80;;;1.50;;
29732;SDS011;16643;43.158;25.302;2023-04-15T09:06:21;3.17;;;1.20;;
29732;SDS011;16643;43.158;25.302;2023-04-15T09:08:50;3.20;;;0.80;;
29732;SDS011;16643;43.158;25.302;2023-04-15T09:11:17;4.60;;;2.03;;
29732;SDS011;16643;43.158;25.302;2023-04-15T09:13:44;4.40;;;1.90;;
29732;SDS011;16643;43.158;25.302;2023-04-15T09:16:10;4.10;;;1.65;;
29732;SDS011;16643;43.158;25.302;2023-04-15T09:18:37;2.80;;;1.10;;
29732;SDS011;16643;43.158;25.302;2023-04-15T09:21:04;2.25;;;1.17;;
29732;SDS011;16643;43.158;25.302;2023-04-15T09:23:35;2.83;;;1.20;;
29732;SDS011;16643;43.158;25.302;2023-04-15T09:26:03;5.07;;;0.90;;
29732;SDS011;16643;43.158;25.302;2023-04-15T09:28:29;2.80;;;1.40;;
29732;SDS011;16643;43.158;25.302;2023-04-15T09:30:56;2.92;;;1.40;;
29732;SDS011;16643;43.158;25.302;2023-04-15T09:33:26;1.50;;;0.88;;
29732;SDS011;16643;43.158;25.302;2023-04-15T09:38:22;4.65;;;1.23;;
29732;SDS011;16643;43.158;25.302;2023-04-15T09:40:48;2.42;;;1.15;;
29732;SDS011;16643;43.158;25.302;2023-04-15T09:43:15;2.95;;;1.55;;
29732;SDS011;16643;43.158;25.302;2023-04-15T09:45:48;4.68;;;1.30;;
29732;SDS011;16643;43.158;25.302;2023-04-15T09:48:17;3.50;;;1.30;;
29732;SDS011;16643;43.158;25.302;2023-04-15T09:50:46;4.53;;;1.65;;
29732;SDS011;16643;43.158;25.302;2023-04-15T09:53:18;5.15;;;2.45;;
29732;SDS011;16643;43.158;25.302;2023-04-15T09:55:54;7.85;;;3.70;;
29732;SDS011;16643;43.158;25.302;2023-04-15T09:58:26;3.78;;;1.50;;
29732;SDS011;16643;43.158;25.302;2023-04-15T10:00:54;7.57;;;2.55;;
29732;SDS011;16643;43.158;25.302;2023-04-15T10:03:24;3.72;;;1.33;;
29732;SDS011;16643;43.158;25.302;2023-04-15T10:05:59;2.90;;;1.30;;
29732;SDS011;16643;43.158;25.302;2023-04-15T10:08:30;10.18;;;1.30;;
29732;SDS011;16643;43.158;25.302;2023-04-15T10:10:57;3.13;;;1.40;;
29732;SDS011;16643;43.158;25.302;2023-04-15T10:13:25;2.77;;;1.10;;
29732;SDS011;16643;43.158;25.302;2023-04-15T10:18:42;3.42;;;1.33;;
29732;SDS011;16643;43.158;25.302;2023-04-15T10:21:09;1.75;;;1.00;;
29732;SDS011;16643;43.158;25.302;2023-04-15T10:26:03;2.28;;;1.25;;
29732;SDS011;16643;43.158;25.302;2023-04-15T10:28:30;5.13;;;1.52;;
29732;SDS011;16643;43.158;25.302;2023-04-15T10:30:56;2.78;;;1.17;;
29732;SDS011;16643;43.158;25.302;2023-04-15T10:33:28;1.70;;;1.20;;
29732;SDS011;16643;43.158;25.302;2023-04-15T10:35:54;3.13;;;1.52;;
29732;SDS011;16643;43.158;25.302;2023-04-15T10:41:13;4.50;;;1.27;;
29732;SDS011;16643;43.158;25.302;2023-04-15T10:44:00;2.80;;;1.42;;
29732;SDS011;16643;43.158;25.302;2023-04-15T10:46:39;2.80;;;1.40;;
29732;SDS011;16643;43.158;25.302;2023-04-15T10:49:10;4.03;;;1.35;;
29732;SDS011;16643;43.158;25.302;2023-04-15T10:51:53;4.43;;;1.30;;
29732;SDS011;16643;43.158;25.302;2023-04-15T10:59:37;2.80;;;1.20;;
29732;SDS011;16643;43.158;25.302;2023-04-15T11:03:04;2.53;;;1.30;;
29732;SDS011;16643;43.158;25.302;2023-04-15T11:08:07;6.32;;;1.40;;
29732;SDS011;16643;43.158;25.302;2023-04-15T11:15:39;2.25;;;1.15;;
29732;SDS011;16643;43.158;25.302;2023-04-15T11:18:36;3.10;;;1.52;;
29732;SDS011;16643;43.158;25.302;2023-04-15T11:21:02;3.05;;;0.98;;
29732;SDS011;16643;43.158;25.302;2023-04-15T11:23:41;2.40;;;1.20;;
29732;SDS011;16643;43.158;25.302;2023-04-15T11:26:13;3.47;;;1.42;;
29732;SDS011;16643;43.158;25.302;2023-04-15T11:28:41;2.78;;;1.02;;
29732;SDS011;16643;43.158;25.302;2023-04-15T11:31:20;5.25;;;1.60;;
29732;SDS011;16643;43.158;25.302;2023-04-15T11:36:28;4.95;;;1.48;;
29732;SDS011;16643;43.158;25.302;2023-04-15T11:39:03;2.50;;;1.20;;
29732;SDS011;16643;43.158;25.302;2023-04-15T11:41:35;2.33;;;1.50;;
29732;SDS011;16643;43.158;25.302;2023-04-15T11:44:14;2.75;;;1.20;;
29732;SDS011;16643;43.158;25.302;2023-04-15T11:46:44;1.48;;;0.82;;
29732;SDS011;16643;43.158;25.302;2023-04-15T11:51:50;4.05;;;1.23;;
29732;SDS011;16643;43.158;25.302;2023-04-15T11:54:19;2.50;;;1.10;;
29732;SDS011;16643;43.158;25.302;2023-04-15T11:56:49;4.18;;;1.38;;
29732;SDS011;16643;43.158;25.302;2023-04-15T11:59:40;4.18;;;1.38;;
29732;SDS011;16643;43.158;25.302;2023-04-15T12:02:13;3.95;;;1.35;;
29732;SDS011;16643;43.158;25.302;2023-04-15T12:04:38;5.10;;;1.10;;
29732;SDS011;16643;43.158;25.302;2023-04-15T12:07:04;2.38;;;0.98;;
29732;SDS011;16643;43.158;25.302;2023-04-15T12:09:36;3.20;;;1.03;;
29732;SDS011;16643;43.158;25.302;2023-04-15T12:12:31;3.08;;;1.10;;
29732;SDS011;16643;43.158;25.302;2023-04-15T12:14:56;1.52;;;0.80;;
29732;SDS011;16643;43.158;25.302;2023-04-15T12:17:42;3.85;;;1.45;;
29732;SDS011;16643;43.158;25.302;2023-04-15T12:20:08;2.45;;;1.30;;
29732;SDS011;16643;43.158;25.302;2023-04-15T12:22:39;2.45;;;1.02;;
29732;SDS011;16643;43.158;25.302;2023-04-15T12:25:08;2.70;;;1.10;;
29732;SDS011;16643;43.158;25.302;2023-04-15T12:27:33;4.72;;;1.15;;
29732;SDS011;16643;43.158;25.302;2023-04-15T12:30:09;4.35;;;1.20;;
29732;SDS011;16643;43.158;25.302;2023-04-15T12:32:35;1.52;;;1.00;;
29732;SDS011;16643;43.158;25.302;2023-04-15T12:35:01;3.65;;;0.98;;
29732;SDS011;16643;43.158;25.302;2023-04-15T12:37:27;3.17;;;1.60;;
29732;SDS011;16643;43.158;25.302;2023-04-15T12:40:10;3.72;;;0.93;;
29732;SDS011;16643;43.158;25.302;2023-04-15T12:42:37;4.70;;;1.35;;
29732;SDS011;16643;43.158;25.302;2023-04-15T12:45:03;2.67;;;1.10;;
29732;SDS011;16643;43.158;25.302;2023-04-15T12:47:29;3.38;;;0.90;;
29732;SDS011;16643;43.158;25.302;2023-04-15T12:49:54;2.30;;;1.10;;
29732;SDS011;16643;43.158;25.302;2023-04-15T12:52:33;1.90;;;1.10;;
29732;SDS011;16643;43.158;25.302;2023-04-15T12:54:59;2.10;;;1.13;;
29732;SDS011;16643;43.158;25.302;2023-04-15T12:57:28;3.45;;;1.17;;
29732;SDS011;16643;43.158;25.302;2023-04-15T13:00:07;3.58;;;1.20;;
29732;SDS011;16643;43.158;25.302;2023-04-15T13:02:34;2.85;;;1.17;;
29732;SDS011;16643;43.158;25.302;2023-04-15T13:05:00;3.83;;;1.38;;
29732;SDS011;16643;43.158;25.302;2023-04-15T13:07:25;7.13;;;2.08;;
29732;SDS011;16643;43.158;25.302;2023-04-15T13:09:51;4.68;;;1.15;;
29732;SDS011;16643;43.158;25.302;2023-04-15T13:12:17;2.60;;;1.20;;
29732;SDS011;16643;43.158;25.302;2023-04-15T13:14:42;3.88;;;1.38;;
29732;SDS011;16643;43.158;25.302;2023-04-15T13:17:08;2.70;;;1.30;;
29732;SDS011;16643;43.158;25.302;2023-04-15T13:19:37;3.67;;;1.50;;
29732;SDS011;16643;43.158;25.302;2023-04-15T13:22:03;3.40;;;1.52;;
29732;SDS011;16643;43.158;25.302;2023-04-15T13:24:28;2.65;;;1.00;;
29732;SDS011;16643;43.158;25.302;2023-04-15T13:26:54;6.78;;;1.90;;
29732;SDS011;16643;43.158;25.302;2023-04-15T13:29:21;6.75;;;1.60;;
29732;SDS011;16643;43.158;25.302;2023-04-15T13:31:51;2.55;;;1.05;;
29732;SDS011;16643;43.158;25.302;2023-04-15T13:34:16;3.65;;;1.20;;
29732;SDS011;16643;43.158;25.302;2023-04-15T13:36:42;6.53;;;1.10;;
29732;SDS011;16643;43.158;25.302;2023-04-15T13:39:08;3.88;;;1.30;;
29732;SDS011;16643;43.158;25.302;2023-04-15T13:41:33;2.30;;;1.55;;
29732;SDS011;16643;43.158;25.302;2023-04-15T13:44:20;3.20;;;1.20;;
29732;SDS011;16643;43.158;25.302;2023-04-15T13:46:50;2.47;;;1.02;;
29732;SDS011;16643;43.158;25.302;2023-04-15T13:49:17;4.38;;;1.63;;
29732;SDS011;16643;43.158;25.302;2023-04-15T13:51:42;3.13;;;1.00;;
29732;SDS011;16643;43.158;25.302;2023-04-15T13:54:08;1.88;;;1.25;;
29732;SDS011;16643;43.158;25.302;2023-04-15T13:56:36;2.45;;;1.50;;
29732;SDS011;16643;43.158;25.302;2023-04-15T13:59:01;3.60;;;1.27;;
29732;SDS011;16643;43.158;25.302;2023-04-15T14:01:42;4.13;;;1.75;;
29732;SDS011;16643;43.158;25.302;2023-04-15T14:04:09;1.38;;;1.10;;
29732;SDS011;16643;43.158;25.302;2023-04-15T14:06:37;6.32;;;1.75;;
29732;SDS011;16643;43.158;25.302;2023-04-15T14:09:02;3.85;;;1.10;;
29732;SDS011;16643;43.158;25.302;2023-04-15T14:11:28;4.68;;;1.60;;
29732;SDS011;16643;43.158;25.302;2023-04-15T14:13:54;2.35;;;1.17;;
29732;SDS011;16643;43.158;25.302;2023-04-15T14:16:19;3.45;;;1.10;;
29732;SDS011;16643;43.158;25.302;2023-04-15T14:18:45;5.47;;;1.40;;
29732;SDS011;16643;43.158;25.302;2023-04-15T14:21:11;2.78;;;1.42;;
29732;SDS011;16643;43.158;25.302;2023-04-15T14:23:37;1.92;;;0.98;;
29732;SDS011;16643;43.158;25.302;2023-04-15T14:26:02;3.65;;;1.15;;
29732;SDS011;16643;43.158;25.302;2023-04-15T14:28:31;5.53;;;1.70;;
29732;SDS011;16643;43.158;25.302;2023-04-15T14:31:00;3.03;;;1.23;;
29732;SDS011;16643;43.158;25.302;2023-04-15T14:33:25;3.80;;;1.50;;
29732;SDS011;16643;43.158;25.302;2023-04-15T14:36:01;3.45;;;1.48;;
29732;SDS011;16643;43.158;25.302;2023-04-15T14:38:27;2.25;;;1.30;;
29732;SDS011;16643;43.158;25.302;2023-04-15T14:41:16;3.97;;;1.30;;
29732;SDS011;16643;43.158;25.302;2023-04-15T14:43:41;2.88;;;1.27;;
29732;SDS011;16643;43.158;25.302;2023-04-15T14:46:10;4.75;;;1.73;;
29732;SDS011;16643;43.158;25.302;2023-04-15T14:48:38;2.92;;;1.25;;
29732;SDS011;16643;43.158;25.302;2023-04-15T14:51:33;4.03;;;1.23;;
29732;SDS011;16643;43.158;25.302;2023-04-15T14:53:58;3.28;;;1.10;;
29732;SDS011;16643;43.158;25.302;2023-04-15T14:56:44;2.67;;;1.40;;
29732;SDS011;16643;43.158;25.302;2023-04-15T14:59:15;7.40;;;1.20;;
29732;SDS011;16643;43.158;25.302;2023-04-15T15:01:41;6.57;;;1.63;;
29732;SDS011;16643;43.158;25.302;2023-04-15T15:04:08;5.80;;;1.85;;
29732;SDS011;16643;43.158;25.302;2023-04-15T15:06:34;4.97;;;1.40;;
29732;SDS011;16643;43.158;25.302;2023-04-15T15:09:03;3.15;;;1.30;;